sensor_id;sensor_type;location;lat;lon;timestamp;P1;durP1;ratioP1;P2;durP2;ratioP2
21624;SDS011;10974;51.034;3.744;2023-09-18T03:39:26;7.43;;;4.93;;
21624;SDS011;10974;51.034;3.744;2023-09-18T03:41:52;6.40;;;4.63;;
21624;SDS011;10974;51.034;3.744;2023-09-18T03:44:18;5.63;;;4.40;;
21624;SDS011;10974;51.034;3.744;2023-09-18T03:46:45;5.30;;;4.37;;
21624;SDS011;10974;51.034;3.744;2023-09-18T03:49:11;4.90;;;4.40;;
21624;SDS011;10974;51.034;3.744;2023-09-18T03:51:38;11.60;;;4.87;;
21624;SDS011;10974;51.034;3.744;2023-09-18T03:54:04;7.93;;;4.03;;
21624;SDS011;10974;51.034;3.744;2023-09-18T03:56:30;8.60;;;5.10;;
21624;SDS011;10974;51.034;3.744;2023-09-18T03:58:56;6.20;;;4.70;;
21624;SDS011;10974;51.034;3.744;2023-09-18T04:01:23;4.50;;;4.10;;
21624;SDS011;10974;51.034;3.744;2023-09-18T04:03:49;5.60;;;4.80;;
21624;SDS011;10974;51.034;3.744;2023-09-18T04:06:15;4.70;;;4.20;;
21624;SDS011;10974;51.034;3.744;2023-09-18T04:08:45;3.93;;;3.53;;
21624;SDS011;10974;51.034;3.744;2023-09-18T04:11:11;6.03;;;4.03;;
21624;SDS011;10974;51.034;3.744;2023-09-18T04:13:37;6.77;;;4.70;;
21624;SDS011;10974;51.034;3.744;2023-09-18T04:16:04;5.77;;;4.10;;
21624;SDS011;10974;51.034;3.744;2023-09-18T04:18:30;6.83;;;3.27;;
21624;SDS011;10974;51.034;3.744;2023-09-18T04:20:56;4.27;;;3.33;;
21624;SDS011;10974;51.034;3.744;2023-09-18T04:23:23;4.80;;;3.00;;
21624;SDS011;10974;51.034;3.744;2023-09-18T04:25:50;7.33;;;3.27;;
21624;SDS011;10974;51.034;3.744;2023-09-18T04:28:16;5.47;;;3.40;;
21624;SDS011;10974;51.034;3.744;2023-09-18T04:30:46;3.07;;;2.83;;
21624;SDS011;10974;51.034;3.744;2023-09-18T04:33:13;5.20;;;2.93;;
21624;SDS011;10974;51.034;3.744;2023-09-18T04:35:39;3.90;;;3.40;;
21624;SDS011;10974;51.034;3.744;2023-09-18T04:38:06;3.43;;;2.97;;
21624;SDS011;10974;51.034;3.744;2023-09-18T04:40:33;2.73;;;2.53;;
21624;SDS011;10974;51.034;3.744;2023-09-18T04:42:59;3.73;;;2.30;;
21624;SDS011;10974;51.034;3.744;2023-09-18T04:45:26;6.87;;;2.80;;
21624;SDS011;10974;51.034;3.744;2023-09-18T04:47:52;2.60;;;2.40;;
21624;SDS011;10974;51.034;3.744;2023-09-18T04:50:19;2.83;;;2.50;;
21624;SDS011;10974;51.034;3.744;2023-09-18T04:52:45;3.97;;;2.60;;
21624;SDS011;10974;51.034;3.744;2023-09-18T04:55:12;4.30;;;2.60;;
21624;SDS011;10974;51.034;3.744;2023-09-18T04:57:38;6.17;;;2.80;;
21624;SDS011;10974;51.034;3.744;2023-09-18T05:00:05;2.40;;;2.20;;
21624;SDS011;10974;51.034;3.744;2023-09-18T05:02:37;3.63;;;2.33;;
21624;SDS011;10974;51.034;3.744;2023-09-18T05:05:04;3.47;;;2.67;;
21624;SDS011;10974;51.034;3.744;2023-09-18T05:07:30;5.43;;;2.60;;
21624;SDS011;10974;51.034;3.744;2023-09-18T05:09:57;2.77;;;2.53;;
21624;SDS011;10974;51.034;3.744;2023-09-18T05:12:23;3.10;;;2.30;;
21624;SDS011;10974;51.034;3.744;2023-09-18T05:14:49;3.10;;;2.67;;
21624;SDS011;10974;51.034;3.744;2023-09-18T05:17:16;5.63;;;2.17;;
21624;SDS011;10974;51.034;3.744;2023-09-18T05:19:43;4.67;;;2.70;;
21624;SDS011;10974;51.034;3.744;2023-09-18T05:22:10;3.80;;;2.60;;
21624;SDS011;10974;51.034;3.744;2023-09-18T05:24:39;3.50;;;2.50;;
21624;SDS011;10974;51.034;3.744;2023-09-18T05:27:05;4.07;;;2.23;;
21624;SDS011;10974;51.034;3.744;2023-09-18T05:29:32;2.40;;;2.20;;
21624;SDS011;10974;51.034;3.744;2023-09-18T05:31:58;3.60;;;2.63;;
21624;SDS011;10974;51.034;3.744;2023-09-18T05:34:24;6.07;;;2.50;;
21624;SDS011;10974;51.034;3.744;2023-09-18T05:36:50;3.17;;;2.10;;
21624;SDS011;10974;51.034;3.744;2023-09-18T05:39:16;4.13;;;2.50;;
21624;SDS011;10974;51.034;3.744;2023-09-18T05:41:43;2.60;;;2.10;;
21624;SDS011;10974;51.034;3.744;2023-09-18T05:44:09;2.43;;;2.07;;
21624;SDS011;10974;51.034;3.744;2023-09-18T05:46:35;3.50;;;2.40;;
21624;SDS011;10974;51.034;3.744;2023-09-18T05:49:02;6.97;;;2.70;;
21624;SDS011;10974;51.034;3.744;2023-09-18T05:51:29;2.80;;;2.23;;
21624;SDS011;10974;51.034;3.744;2023-09-18T05:53:55;2.87;;;2.37;;
21624;SDS011;10974;51.034;3.744;2023-09-18T05:56:21;3.20;;;2.50;;
21624;SDS011;10974;51.034;3.744;2023-09-18T05:58:49;3.27;;;2.50;;
21624;SDS011;10974;51.034;3.744;2023-09-18T06:01:15;4.93;;;2.80;;
21624;SDS011;10974;51.034;3.744;2023-09-18T06:03:41;3.20;;;2.50;;
21624;SDS011;10974;51.034;3.744;2023-09-18T06:06:07;2.87;;;2.40;;
21624;SDS011;10974;51.034;3.744;2023-09-18T06:08:33;5.70;;;2.27;;
21624;SDS011;10974;51.034;3.744;2023-09-18T06:10:59;3.77;;;2.20;;
21624;SDS011;10974;51.034;3.744;2023-09-18T06:13:25;3.77;;;2.50;;
21624;SDS011;10974;51.034;3.744;2023-09-18T06:15:52;3.40;;;2.40;;
21624;SDS011;10974;51.034;3.744;2023-09-18T06:18:19;4.70;;;2.17;;
21624;SDS011;10974;51.034;3.744;2023-09-18T06:20:48;4.47;;;2.73;;
21624;SDS011;10974;51.034;3.744;2023-09-18T06:23:15;5.97;;;2.40;;
21624;SDS011;10974;51.034;3.744;2023-09-18T06:25:41;3.20;;;2.20;;
21624;SDS011;10974;51.034;3.744;2023-09-18T06:28:07;3.00;;;2.50;;
21624;SDS011;10974;51.034;3.744;2023-09-18T06:30:33;3.33;;;2.47;;
21624;SDS011;10974;51.034;3.744;2023-09-18T06:33:01;3.87;;;2.40;;
21624;SDS011;10974;51.034;3.744;2023-09-18T06:35:29;4.17;;;2.30;;
21624;SDS011;10974;51.034;3.744;2023-09-18T06:37:55;2.97;;;2.67;;
21624;SDS011;10974;51.034;3.744;2023-09-18T06:40:23;2.67;;;2.33;;
21624;SDS011;10974;51.034;3.744;2023-09-18T06:42:50;4.47;;;2.53;;
21624;SDS011;10974;51.034;3.744;2023-09-18T06:45:19;2.40;;;2.17;;
21624;SDS011;10974;51.034;3.744;2023-09-18T06:47:45;3.40;;;2.37;;
21624;SDS011;10974;51.034;3.744;2023-09-18T06:50:12;5.90;;;2.27;;
21624;SDS011;10974;51.034;3.744;2023-09-18T06:52:39;3.67;;;2.60;;
21624;SDS011;10974;51.034;3.744;2023-09-18T06:55:05;3.53;;;2.00;;
21624;SDS011;10974;51.034;3.744;2023-09-18T06:57:32;3.33;;;2.43;;
21624;SDS011;10974;51.034;3.744;2023-09-18T06:59:59;3.40;;;2.60;;
21624;SDS011;10974;51.034;3.744;2023-09-18T07:02:25;4.80;;;2.70;;
21624;SDS011;10974;51.034;3.744;2023-09-18T07:04:52;5.17;;;2.50;;
21624;SDS011;10974;51.034;3.744;2023-09-18T07:07:18;6.90;;;3.20;;
21624;SDS011;10974;51.034;3.744;2023-09-18T07:09:50;4.73;;;3.50;;
21624;SDS011;10974;51.034;3.744;2023-09-18T07:12:16;3.07;;;2.80;;
21624;SDS011;10974;51.034;3.744;2023-09-18T07:14:44;3.60;;;2.90;;
21624;SDS011;10974;51.034;3.744;2023-09-18T07:17:11;3.77;;;3.47;;
21624;SDS011;10974;51.034;3.744;2023-09-18T07:19:37;4.03;;;3.03;;
21624;SDS011;10974;51.034;3.744;2023-09-18T07:22:03;3.87;;;3.40;;
21624;SDS011;10974;51.034;3.744;2023-09-18T07:24:29;4.73;;;3.30;;
21624;SDS011;10974;51.034;3.744;2023-09-18T07:26:55;5.57;;;3.60;;
21624;SDS011;10974;51.034;3.744;2023-09-18T07:29:23;5.63;;;3.77;;
21624;SDS011;10974;51.034;3.744;2023-09-18T07:31:52;5.60;;;3.57;;
21624;SDS011;10974;51.034;3.744;2023-09-18T07:34:18;4.23;;;3.30;;
21624;SDS011;10974;51.034;3.744;2023-09-18T07:36:44;5.47;;;3.47;;
21624;SDS011;10974;51.034;3.744;2023-09-18T07:39:10;4.83;;;3.20;;
21624;SDS011;10974;51.034;3.744;2023-09-18T07:41:36;7.23;;;3.40;;
21624;SDS011;10974;51.034;3.744;2023-09-18T07:44:03;5.83;;;3.03;;
21624;SDS011;10974;51.034;3.744;2023-09-18T07:46:29;4.87;;;3.10;;
21624;SDS011;10974;51.034;3.744;2023-09-18T07:48:55;4.90;;;3.10;;
21624;SDS011;10974;51.034;3.744;2023-09-18T07:51:21;5.10;;;3.10;;
21624;SDS011;10974;51.034;3.744;2023-09-18T07:53:48;4.03;;;3.23;;
21624;SDS011;10974;51.034;3.744;2023-09-18T07:56:15;4.73;;;3.00;;
21624;SDS011;10974;51.034;3.744;2023-09-18T07:58:41;5.83;;;3.30;;
21624;SDS011;10974;51.034;3.744;2023-09-18T08:01:07;5.83;;;3.60;;
21624;SDS011;10974;51.034;3.744;2023-09-18T08:03:36;7.03;;;3.43;;
21624;SDS011;10974;51.034;3.744;2023-09-18T08:06:03;3.43;;;3.13;;
21624;SDS011;10974;51.034;3.744;2023-09-18T08:08:29;3.70;;;3.17;;
21624;SDS011;10974;51.034;3.744;2023-09-18T08:10:57;8.40;;;3.50;;
21624;SDS011;10974;51.034;3.744;2023-09-18T08:13:24;3.83;;;3.13;;
21624;SDS011;10974;51.034;3.744;2023-09-18T08:15:50;4.20;;;3.37;;
21624;SDS011;10974;51.034;3.744;2023-09-18T08:18:16;6.20;;;3.27;;
21624;SDS011;10974;51.034;3.744;2023-09-18T08:20:42;4.67;;;3.20;;
21624;SDS011;10974;51.034;3.744;2023-09-18T08:23:11;5.07;;;3.07;;
21624;SDS011;10974;51.034;3.744;2023-09-18T08:25:37;9.63;;;4.27;;
21624;SDS011;10974;51.034;3.744;2023-09-18T08:28:05;6.60;;;3.47;;
21624;SDS011;10974;51.034;3.744;2023-09-18T08:30:31;5.53;;;3.60;;
21624;SDS011;10974;51.034;3.744;2023-09-18T08:32:57;7.73;;;3.90;;
21624;SDS011;10974;51.034;3.744;2023-09-18T08:35:23;7.80;;;4.20;;
21624;SDS011;10974;51.034;3.744;2023-09-18T08:37:54;4.33;;;3.77;;
21624;SDS011;10974;51.034;3.744;2023-09-18T08:40:20;4.60;;;3.50;;
21624;SDS011;10974;51.034;3.744;2023-09-18T08:42:48;4.60;;;3.83;;
21624;SDS011;10974;51.034;3.744;2023-09-18T08:45:38;5.63;;;3.33;;
21624;SDS011;10974;51.034;3.744;2023-09-18T08:48:01;5.30;;;3.50;;
21624;SDS011;10974;51.034;3.744;2023-09-18T08:50:34;6.23;;;4.20;;
21624;SDS011;10974;51.034;3.744;2023-09-18T08:53:00;4.63;;;3.60;;
21624;SDS011;10974;51.034;3.744;2023-09-18T08:55:26;4.20;;;3.20;;
21624;SDS011;10974;51.034;3.744;2023-09-18T08:57:53;4.33;;;3.90;;
21624;SDS011;10974;51.034;3.744;2023-09-18T09:00:20;5.77;;;3.70;;
21624;SDS011;10974;51.034;3.744;2023-09-18T09:02:46;5.37;;;3.57;;
21624;SDS011;10974;51.034;3.744;2023-09-18T09:05:13;5.40;;;3.70;;
21624;SDS011;10974;51.034;3.744;2023-09-18T09:07:40;6.17;;;4.00;;
21624;SDS011;10974;51.034;3.744;2023-09-18T09:10:06;4.87;;;3.70;;
21624;SDS011;10974;51.034;3.744;2023-09-18T09:12:48;4.90;;;3.90;;
21624;SDS011;10974;51.034;3.744;2023-09-18T09:15:14;7.20;;;3.87;;
21624;SDS011;10974;51.034;3.744;2023-09-18T09:17:41;4.20;;;3.47;;
21624;SDS011;10974;51.034;3.744;2023-09-18T09:20:08;5.90;;;3.07;;
21624;SDS011;10974;51.034;3.744;2023-09-18T09:22:38;4.17;;;3.60;;
21624;SDS011;10974;51.034;3.744;2023-09-18T09:25:27;5.00;;;3.33;;
21624;SDS011;10974;51.034;3.744;2023-09-18T09:27:55;3.57;;;2.80;;
21624;SDS011;10974;51.034;3.744;2023-09-18T09:30:22;6.87;;;3.60;;
21624;SDS011;10974;51.034;3.744;2023-09-18T09:32:49;5.07;;;3.43;;
21624;SDS011;10974;51.034;3.744;2023-09-18T09:35:27;4.13;;;3.70;;
21624;SDS011;10974;51.034;3.744;2023-09-18T09:37:58;7.90;;;4.00;;
21624;SDS011;10974;51.034;3.744;2023-09-18T09:40:26;6.00;;;3.17;;
21624;SDS011;10974;51.034;3.744;2023-09-18T09:42:55;4.77;;;3.60;;
21624;SDS011;10974;51.034;3.744;2023-09-18T09:45:30;4.67;;;3.50;;
21624;SDS011;10974;51.034;3.744;2023-09-18T09:48:04;6.73;;;3.10;;
21624;SDS011;10974;51.034;3.744;2023-09-18T09:50:31;4.57;;;3.23;;
21624;SDS011;10974;51.034;3.744;2023-09-18T09:52:58;5.40;;;3.90;;
21624;SDS011;10974;51.034;3.744;2023-09-18T09:55:26;5.07;;;3.33;;
21624;SDS011;10974;51.034;3.744;2023-09-18T09:58:03;7.10;;;3.67;;
21624;SDS011;10974;51.034;3.744;2023-09-18T10:00:38;3.90;;;3.30;;
21624;SDS011;10974;51.034;3.744;2023-09-18T10:03:11;10.77;;;3.03;;
21624;SDS011;10974;51.034;3.744;2023-09-18T10:05:39;4.80;;;3.37;;
21624;SDS011;10974;51.034;3.744;2023-09-18T10:10:35;5.50;;;3.03;;
21624;SDS011;10974;51.034;3.744;2023-09-18T10:13:09;4.10;;;3.20;;
21624;SDS011;10974;51.034;3.744;2023-09-18T10:15:36;7.60;;;3.10;;
21624;SDS011;10974;51.034;3.744;2023-09-18T10:18:10;8.73;;;3.40;;
21624;SDS011;10974;51.034;3.744;2023-09-18T10:20:42;7.93;;;3.10;;
21624;SDS011;10974;51.034;3.744;2023-09-18T10:23:12;5.27;;;2.90;;
21624;SDS011;10974;51.034;3.744;2023-09-18T10:25:46;3.37;;;2.80;;
21624;SDS011;10974;51.034;3.744;2023-09-18T10:28:16;3.47;;;3.00;;
21624;SDS011;10974;51.034;3.744;2023-09-18T10:30:42;3.53;;;2.90;;
21624;SDS011;10974;51.034;3.744;2023-09-18T10:33:08;5.03;;;3.00;;
21624;SDS011;10974;51.034;3.744;2023-09-18T10:35:35;4.97;;;3.40;;
21624;SDS011;10974;51.034;3.744;2023-09-18T10:38:02;3.10;;;2.80;;
21624;SDS011;10974;51.034;3.744;2023-09-18T10:40:28;5.37;;;3.20;;
21624;SDS011;10974;51.034;3.744;2023-09-18T10:42:55;3.50;;;2.90;;
21624;SDS011;10974;51.034;3.744;2023-09-18T10:45:23;4.40;;;3.00;;
21624;SDS011;10974;51.034;3.744;2023-09-18T10:47:51;5.60;;;2.80;;
21624;SDS011;10974;51.034;3.744;2023-09-18T10:50:24;6.23;;;4.00;;
21624;SDS011;10974;51.034;3.744;2023-09-18T10:52:50;6.00;;;2.83;;
21624;SDS011;10974;51.034;3.744;2023-09-18T10:55:16;2.67;;;2.40;;
21624;SDS011;10974;51.034;3.744;2023-09-18T10:57:52;4.33;;;2.90;;
21624;SDS011;10974;51.034;3.744;2023-09-18T11:00:18;3.33;;;2.80;;
21624;SDS011;10974;51.034;3.744;2023-09-18T11:02:49;4.60;;;2.90;;
21624;SDS011;10974;51.034;3.744;2023-09-18T11:05:28;4.50;;;2.93;;
21624;SDS011;10974;51.034;3.744;2023-09-18T11:10:54;4.67;;;2.70;;
21624;SDS011;10974;51.034;3.744;2023-09-18T11:13:37;2.30;;;2.10;;
21624;SDS011;10974;51.034;3.744;2023-09-18T11:16:13;6.23;;;3.27;;
21624;SDS011;10974;51.034;3.744;2023-09-18T11:18:39;3.37;;;2.20;;
21624;SDS011;10974;51.034;3.744;2023-09-18T11:21:12;2.90;;;2.10;;
21624;SDS011;10974;51.034;3.744;2023-09-18T11:23:39;4.07;;;2.57;;
21624;SDS011;10974;51.034;3.744;2023-09-18T11:26:11;4.97;;;2.67;;
21624;SDS011;10974;51.034;3.744;2023-09-18T11:28:37;2.57;;;2.37;;
21624;SDS011;10974;51.034;3.744;2023-09-18T11:31:03;3.87;;;2.40;;
21624;SDS011;10974;51.034;3.744;2023-09-18T11:36:02;2.60;;;2.40;;
21624;SDS011;10974;51.034;3.744;2023-09-18T11:38:29;2.67;;;2.47;;
21624;SDS011;10974;51.034;3.744;2023-09-18T11:40:55;2.40;;;2.20;;
21624;SDS011;10974;51.034;3.744;2023-09-18T11:43:23;3.30;;;2.40;;
21624;SDS011;10974;51.034;3.744;2023-09-18T11:46:00;3.77;;;2.43;;
21624;SDS011;10974;51.034;3.744;2023-09-18T11:48:30;2.50;;;2.00;;
21624;SDS011;10974;51.034;3.744;2023-09-18T11:51:00;5.20;;;2.40;;
21624;SDS011;10974;51.034;3.744;2023-09-18T11:53:32;3.50;;;2.10;;
21624;SDS011;10974;51.034;3.744;2023-09-18T11:55:59;2.90;;;2.40;;
21624;SDS011;10974;51.034;3.744;2023-09-18T11:58:25;3.80;;;2.63;;
21624;SDS011;10974;51.034;3.744;2023-09-18T12:00:51;3.07;;;2.27;;
21624;SDS011;10974;51.034;3.744;2023-09-18T12:03:20;2.57;;;2.37;;
21624;SDS011;10974;51.034;3.744;2023-09-18T12:08:19;2.60;;;2.00;;
21624;SDS011;10974;51.034;3.744;2023-09-18T12:10:47;4.23;;;2.30;;
21624;SDS011;10974;51.034;3.744;2023-09-18T12:13:13;3.20;;;2.10;;
21624;SDS011;10974;51.034;3.744;2023-09-18T12:15:40;5.23;;;2.70;;
21624;SDS011;10974;51.034;3.744;2023-09-18T12:18:07;7.07;;;2.50;;
21624;SDS011;10974;51.034;3.744;2023-09-18T12:20:33;5.47;;;2.43;;
21624;SDS011;10974;51.034;3.744;2023-09-18T12:23:01;3.13;;;2.10;;
21624;SDS011;10974;51.034;3.744;2023-09-18T12:25:27;6.20;;;2.70;;
21624;SDS011;10974;51.034;3.744;2023-09-18T12:27:54;3.67;;;2.30;;
21624;SDS011;10974;51.034;3.744;2023-09-18T12:30:21;2.87;;;2.07;;
21624;SDS011;10974;51.034;3.744;2023-09-18T12:32:48;3.80;;;2.40;;
21624;SDS011;10974;51.034;3.744;2023-09-18T12:35:14;3.00;;;1.97;;
21624;SDS011;10974;51.034;3.744;2023-09-18T12:37:41;2.37;;;2.03;;
21624;SDS011;10974;51.034;3.744;2023-09-18T12:40:08;4.13;;;2.40;;
21624;SDS011;10974;51.034;3.744;2023-09-18T12:42:46;3.83;;;2.13;;
21624;SDS011;10974;51.034;3.744;2023-09-18T12:45:12;4.10;;;2.30;;
21624;SDS011;10974;51.034;3.744;2023-09-18T12:47:39;2.97;;;2.20;;
21624;SDS011;10974;51.034;3.744;2023-09-18T12:50:05;3.03;;;2.23;;
21624;SDS011;10974;51.034;3.744;2023-09-18T12:52:32;2.37;;;2.17;;
21624;SDS011;10974;51.034;3.744;2023-09-18T12:54:58;3.47;;;2.50;;
21624;SDS011;10974;51.034;3.744;2023-09-18T12:57:26;4.13;;;1.80;;
21624;SDS011;10974;51.034;3.744;2023-09-18T12:59:53;3.43;;;2.03;;
21624;SDS011;10974;51.034;3.744;2023-09-18T13:02:20;3.23;;;2.13;;
21624;SDS011;10974;51.034;3.744;2023-09-18T13:04:53;3.00;;;1.80;;
21624;SDS011;10974;51.034;3.744;2023-09-18T13:07:19;2.07;;;1.87;;
21624;SDS011;10974;51.034;3.744;2023-09-18T13:15:31;3.73;;;2.07;;
21624;SDS011;10974;51.034;3.744;2023-09-18T13:17:58;3.87;;;2.30;;
21624;SDS011;10974;51.034;3.744;2023-09-18T13:20:28;1.90;;;1.80;;
21624;SDS011;10974;51.034;3.744;2023-09-18T13:22:55;7.03;;;1.73;;
21624;SDS011;10974;51.034;3.744;2023-09-18T13:27:48;5.60;;;1.67;;
21624;SDS011;10974;51.034;3.744;2023-09-18T13:30:14;2.70;;;1.20;;
21624;SDS011;10974;51.034;3.744;2023-09-18T13:32:42;2.53;;;1.33;;
21624;SDS011;10974;51.034;3.744;2023-09-18T13:35:15;3.43;;;1.77;;
21624;SDS011;10974;51.034;3.744;2023-09-18T13:37:41;2.80;;;1.70;;
21624;SDS011;10974;51.034;3.744;2023-09-18T13:40:08;2.57;;;1.40;;
21624;SDS011;10974;51.034;3.744;2023-09-18T13:42:37;2.23;;;1.40;;
21624;SDS011;10974;51.034;3.744;2023-09-18T13:45:04;1.57;;;1.37;;
21624;SDS011;10974;51.034;3.744;2023-09-18T13:47:34;4.30;;;1.80;;
21624;SDS011;10974;51.034;3.744;2023-09-18T13:50:02;3.37;;;2.07;;
21624;SDS011;10974;51.034;3.744;2023-09-18T13:52:29;2.40;;;1.80;;
21624;SDS011;10974;51.034;3.744;2023-09-18T13:54:55;1.90;;;1.70;;
21624;SDS011;10974;51.034;3.744;2023-09-18T13:57:22;2.37;;;2.17;;
21624;SDS011;10974;51.034;3.744;2023-09-18T13:59:49;1.60;;;1.50;;
21624;SDS011;10974;51.034;3.744;2023-09-18T14:02:15;2.50;;;2.13;;
21624;SDS011;10974;51.034;3.744;2023-09-18T14:04:42;2.37;;;2.13;;
21624;SDS011;10974;51.034;3.744;2023-09-18T14:07:08;2.33;;;2.00;;
21624;SDS011;10974;51.034;3.744;2023-09-18T14:09:35;4.03;;;2.53;;
21624;SDS011;10974;51.034;3.744;2023-09-18T14:12:02;3.63;;;2.50;;
21624;SDS011;10974;51.034;3.744;2023-09-18T14:14:28;5.57;;;2.30;;
21624;SDS011;10974;51.034;3.744;2023-09-18T14:16:54;3.30;;;2.67;;
21624;SDS011;10974;51.034;3.744;2023-09-18T14:19:22;4.83;;;2.80;;
21624;SDS011;10974;51.034;3.744;2023-09-18T14:21:48;3.77;;;2.70;;
21624;SDS011;10974;51.034;3.744;2023-09-18T14:24:14;4.00;;;2.10;;
21624;SDS011;10974;51.034;3.744;2023-09-18T14:26:43;5.90;;;2.57;;
21624;SDS011;10974;51.034;3.744;2023-09-18T14:29:10;2.87;;;2.13;;
21624;SDS011;10974;51.034;3.744;2023-09-18T14:31:36;4.10;;;2.70;;
21624;SDS011;10974;51.034;3.744;2023-09-18T14:34:03;3.33;;;2.60;;
21624;SDS011;10974;51.034;3.744;2023-09-18T14:36:33;2.40;;;1.77;;
21624;SDS011;10974;51.034;3.744;2023-09-18T14:38:59;2.70;;;2.50;;
21624;SDS011;10974;51.034;3.744;2023-09-18T14:41:25;2.40;;;1.87;;
21624;SDS011;10974;51.034;3.744;2023-09-18T14:43:52;2.37;;;1.97;;
21624;SDS011;10974;51.034;3.744;2023-09-18T14:46:18;2.87;;;2.10;;
21624;SDS011;10974;51.034;3.744;2023-09-18T14:48:45;2.53;;;2.17;;
21624;SDS011;10974;51.034;3.744;2023-09-18T14:51:11;4.27;;;2.40;;
21624;SDS011;10974;51.034;3.744;2023-09-18T14:53:38;4.20;;;2.10;;
21624;SDS011;10974;51.034;3.744;2023-09-18T14:56:04;3.03;;;2.27;;
21624;SDS011;10974;51.034;3.744;2023-09-18T14:58:30;2.17;;;1.80;;
21624;SDS011;10974;51.034;3.744;2023-09-18T15:00:56;2.90;;;1.80;;
21624;SDS011;10974;51.034;3.744;2023-09-18T15:03:23;2.77;;;2.03;;
21624;SDS011;10974;51.034;3.744;2023-09-18T15:05:49;2.17;;;1.80;;
21624;SDS011;10974;51.034;3.744;2023-09-18T15:08:17;3.17;;;1.90;;
21624;SDS011;10974;51.034;3.744;2023-09-18T15:10:47;2.70;;;1.87;;
21624;SDS011;10974;51.034;3.744;2023-09-18T15:13:13;4.20;;;1.80;;
21624;SDS011;10974;51.034;3.744;2023-09-18T15:15:40;4.87;;;2.10;;
21624;SDS011;10974;51.034;3.744;2023-09-18T15:18:06;3.17;;;1.73;;
21624;SDS011;10974;51.034;3.744;2023-09-18T15:20:33;5.80;;;2.10;;
21624;SDS011;10974;51.034;3.744;2023-09-18T15:22:59;4.70;;;1.97;;
21624;SDS011;10974;51.034;3.744;2023-09-18T15:25:26;2.73;;;1.80;;
21624;SDS011;10974;51.034;3.744;2023-09-18T15:27:53;3.60;;;1.87;;
21624;SDS011;10974;51.034;3.744;2023-09-18T15:30:21;3.83;;;1.90;;
21624;SDS011;10974;51.034;3.744;2023-09-18T15:32:53;3.53;;;1.67;;
21624;SDS011;10974;51.034;3.744;2023-09-18T15:35:19;3.90;;;1.60;;
21624;SDS011;10974;51.034;3.744;2023-09-18T15:37:45;4.70;;;1.93;;
21624;SDS011;10974;51.034;3.744;2023-09-18T15:40:12;2.40;;;1.60;;
21624;SDS011;10974;51.034;3.744;2023-09-18T15:42:40;4.73;;;2.07;;
21624;SDS011;10974;51.034;3.744;2023-09-18T15:45:06;3.07;;;1.97;;
21624;SDS011;10974;51.034;3.744;2023-09-18T15:47:34;4.37;;;1.57;;
21624;SDS011;10974;51.034;3.744;2023-09-18T15:50:00;4.17;;;2.07;;
21624;SDS011;10974;51.034;3.744;2023-09-18T15:52:26;3.93;;;1.60;;
21624;SDS011;10974;51.034;3.744;2023-09-18T15:54:52;5.60;;;2.27;;
21624;SDS011;10974;51.034;3.744;2023-09-18T15:57:18;5.63;;;1.90;;
21624;SDS011;10974;51.034;3.744;2023-09-18T15:59:44;3.90;;;1.60;;
21624;SDS011;10974;51.034;3.744;2023-09-18T16:02:10;3.73;;;2.00;;
21624;SDS011;10974;51.034;3.744;2023-09-18T16:04:36;3.77;;;2.07;;
21624;SDS011;10974;51.034;3.744;2023-09-18T16:07:02;4.07;;;1.80;;
21624;SDS011;10974;51.034;3.744;2023-09-18T16:09:28;5.50;;;1.60;;
21624;SDS011;10974;51.034;3.744;2023-09-18T16:11:54;5.60;;;1.80;;
21624;SDS011;10974;51.034;3.744;2023-09-18T16:14:21;9.70;;;2.13;;
21624;SDS011;10974;51.034;3.744;2023-09-18T16:16:47;3.67;;;1.77;;
21624;SDS011;10974;51.034;3.744;2023-09-18T16:19:13;4.80;;;2.30;;
21624;SDS011;10974;51.034;3.744;2023-09-18T16:21:39;4.60;;;1.83;;
21624;SDS011;10974;51.034;3.744;2023-09-18T16:24:05;6.40;;;1.80;;
21624;SDS011;10974;51.034;3.744;2023-09-18T16:26:33;7.40;;;1.93;;
21624;SDS011;10974;51.034;3.744;2023-09-18T16:28:59;3.90;;;1.73;;
21624;SDS011;10974;51.034;3.744;2023-09-18T16:31:25;4.90;;;1.67;;
21624;SDS011;10974;51.034;3.744;2023-09-18T16:33:53;4.00;;;1.93;;
21624;SDS011;10974;51.034;3.744;2023-09-18T16:36:19;4.07;;;1.97;;
21624;SDS011;10974;51.034;3.744;2023-09-18T16:38:45;3.80;;;1.90;;
21624;SDS011;10974;51.034;3.744;2023-09-18T16:41:11;7.57;;;1.97;;
21624;SDS011;10974;51.034;3.744;2023-09-18T16:43:37;4.40;;;2.00;;
21624;SDS011;10974;51.034;3.744;2023-09-18T16:46:04;4.63;;;2.43;;
21624;SDS011;10974;51.034;3.744;2023-09-18T16:48:30;4.73;;;2.30;;
21624;SDS011;10974;51.034;3.744;2023-09-18T16:50:57;3.97;;;1.80;;
21624;SDS011;10974;51.034;3.744;2023-09-18T16:53:24;7.43;;;1.90;;
21624;SDS011;10974;51.034;3.744;2023-09-18T16:55:51;3.70;;;1.97;;
21624;SDS011;10974;51.034;3.744;2023-09-18T16:58:17;6.37;;;1.90;;
21624;SDS011;10974;51.034;3.744;2023-09-18T17:00:43;5.20;;;2.40;;
21624;SDS011;10974;51.034;3.744;2023-09-18T17:03:09;3.33;;;1.57;;
21624;SDS011;10974;51.034;3.744;2023-09-18T17:05:35;6.37;;;2.50;;
21624;SDS011;10974;51.034;3.744;2023-09-18T17:08:01;5.40;;;1.80;;
21624;SDS011;10974;51.034;3.744;2023-09-18T17:10:31;5.80;;;1.90;;
21624;SDS011;10974;51.034;3.744;2023-09-18T17:12:57;6.27;;;1.90;;
21624;SDS011;10974;51.034;3.744;2023-09-18T17:15:24;3.87;;;1.70;;
21624;SDS011;10974;51.034;3.744;2023-09-18T17:17:51;4.37;;;2.13;;
21624;SDS011;10974;51.034;3.744;2023-09-18T17:20:24;3.67;;;2.07;;
21624;SDS011;10974;51.034;3.744;2023-09-18T17:22:50;6.20;;;2.17;;
21624;SDS011;10974;51.034;3.744;2023-09-18T17:25:16;5.20;;;2.13;;
21624;SDS011;10974;51.034;3.744;2023-09-18T17:27:42;7.27;;;2.53;;
21624;SDS011;10974;51.034;3.744;2023-09-18T17:30:08;6.73;;;1.97;;
21624;SDS011;10974;51.034;3.744;2023-09-18T17:32:35;5.67;;;2.00;;
21624;SDS011;10974;51.034;3.744;2023-09-18T17:35:01;6.13;;;2.30;;
21624;SDS011;10974;51.034;3.744;2023-09-18T17:37:28;7.93;;;2.00;;
21624;SDS011;10974;51.034;3.744;2023-09-18T17:39:56;5.10;;;2.30;;
21624;SDS011;10974;51.034;3.744;2023-09-18T17:42:22;6.03;;;2.20;;
21624;SDS011;10974;51.034;3.744;2023-09-18T17:44:48;7.27;;;2.40;;
21624;SDS011;10974;51.034;3.744;2023-09-18T17:47:17;7.17;;;2.33;;
21624;SDS011;10974;51.034;3.744;2023-09-18T17:49:43;4.87;;;2.50;;
21624;SDS011;10974;51.034;3.744;2023-09-18T17:52:09;9.13;;;2.43;;
21624;SDS011;10974;51.034;3.744;2023-09-18T17:54:37;5.57;;;2.20;;
21624;SDS011;10974;51.034;3.744;2023-09-18T17:57:03;6.70;;;2.50;;
21624;SDS011;10974;51.034;3.744;2023-09-18T17:59:30;6.90;;;2.07;;
21624;SDS011;10974;51.034;3.744;2023-09-18T18:01:57;7.07;;;2.70;;
21624;SDS011;10974;51.034;3.744;2023-09-18T18:04:23;8.60;;;2.53;;
21624;SDS011;10974;51.034;3.744;2023-09-18T18:06:49;8.50;;;2.60;;
21624;SDS011;10974;51.034;3.744;2023-09-18T18:09:18;6.93;;;2.43;;
21624;SDS011;10974;51.034;3.744;2023-09-18T18:11:45;10.20;;;2.57;;
21624;SDS011;10974;51.034;3.744;2023-09-18T18:14:11;5.50;;;2.37;;
21624;SDS011;10974;51.034;3.744;2023-09-18T18:16:38;8.40;;;2.70;;
21624;SDS011;10974;51.034;3.744;2023-09-18T18:19:05;11.43;;;2.70;;
21624;SDS011;10974;51.034;3.744;2023-09-18T18:21:31;7.20;;;2.70;;
21624;SDS011;10974;51.034;3.744;2023-09-18T18:23:58;8.40;;;2.77;;
21624;SDS011;10974;51.034;3.744;2023-09-18T18:26:24;10.80;;;2.60;;
21624;SDS011;10974;51.034;3.744;2023-09-18T18:28:54;7.40;;;2.77;;
21624;SDS011;10974;51.034;3.744;2023-09-18T18:31:22;7.77;;;2.80;;
21624;SDS011;10974;51.034;3.744;2023-09-18T18:33:48;7.53;;;2.93;;
21624;SDS011;10974;51.034;3.744;2023-09-18T18:36:14;6.10;;;2.23;;
21624;SDS011;10974;51.034;3.744;2023-09-18T18:38:40;7.03;;;2.60;;
21624;SDS011;10974;51.034;3.744;2023-09-18T18:41:07;8.50;;;3.07;;
21624;SDS011;10974;51.034;3.744;2023-09-18T18:43:34;14.27;;;2.80;;
21624;SDS011;10974;51.034;3.744;2023-09-18T18:46:00;6.10;;;2.40;;